This is the latest recevied weather packets stored in our database for station/object DM3FAM-13. If no packets are shown the sender has not sent any weather packets the latest 10 day(s).
| Time | Temp. | Humidity | Pressure | Rain* | Wind** | Luminosity | Snow |
|---|---|---|---|---|---|---|---|
| 1777279831 | 16.11° C | 53% | 1020.9 hPa | 0 mm | - | 43 W/m² | - |
| 1777279231 | 16.11° C | 54% | 1020.9 hPa | 0 mm | - | 43 W/m² | - |
| 1777278631 | 15.56° C | 53% | 1020.9 hPa | 0 mm | - | 42 W/m² | - |
| 1777278030 | 15.56° C | 52% | 1021 hPa | 0 mm | - | 41 W/m² | - |
| 1777277430 | 15° C | 52% | 1020.9 hPa | 0 mm | - | 40 W/m² | - |
| 1777276830 | 14.44° C | 51% | 1021 hPa | 0 mm | - | 39 W/m² | - |
| 1777276230 | 13.89° C | 54% | 1021.1 hPa | 0 mm | - | 41 W/m² | - |
| 1777275630 | 13.33° C | 56% | 1021.1 hPa | 0 mm | - | 45 W/m² | - |
| 1777275030 | 12.22° C | 61% | 1021 hPa | 0 mm | - | 39 W/m² | - |
| 1777274430 | 11.67° C | 72% | 1021.1 hPa | 0 mm | - | 37 W/m² | - |
| 1777273830 | 11.11° C | 74% | 1021.3 hPa | 0 mm | - | 34 W/m² | - |
| 1777273230 | 10° C | 78% | 1021.3 hPa | 0 mm | - | 40 W/m² | - |
| 1777272630 | 8.33° C | 82% | 1021.4 hPa | 0 mm | - | 41 W/m² | - |
| 1777272030 | 7.78° C | 86% | 1021.5 hPa | 0 mm | - | 36 W/m² | - |
| 1777271430 | 6.67° C | 89% | 1021.6 hPa | 0 mm | - | 34 W/m² | - |
| 1777270831 | 5.56° C | 89% | 1021.7 hPa | 0 mm | - | 30 W/m² | - |
| 1777270230 | 5.56° C | 87% | 1021.7 hPa | 0 mm | - | 28 W/m² | - |
| 1777269631 | 5.56° C | 86% | 1021.5 hPa | 0 mm | - | 27 W/m² | - |
| 1777269031 | 5.56° C | 86% | 1021.6 hPa | 0 mm | - | 24 W/m² | - |
| 1777268430 | 5° C | 89% | 1021.6 hPa | 0 mm | - | 23 W/m² | - |
| 1777267831 | 4.44° C | 89% | 1021.4 hPa | 0 mm | - | 21 W/m² | - |
| 1777267230 | 4.44° C | 88% | 1021.4 hPa | 0 mm | - | 19 W/m² | - |
| 1777266630 | 3.89° C | 89% | 1021.3 hPa | 0 mm | - | 16 W/m² | - |
| 1777266031 | 3.89° C | 90% | 1021.3 hPa | 0 mm | - | 13 W/m² | - |
| 1777265431 | 3.89° C | 88% | 1021.3 hPa | 0 mm | - | 10 W/m² | - |
* Rain latest hour (hover to see other rain measurements)
** Current wind speed in m/s (hover to see current wind gust speed)